createdAt,value
2023-02-08T00:01:19.370Z,419
2023-02-08T00:02:19.454Z,421
2023-02-08T00:03:19.278Z,424
2023-02-08T00:04:18.887Z,427
2023-02-08T00:08:19.100Z,420
2023-02-08T00:09:19.056Z,437
2023-02-08T00:10:19.480Z,412
2023-02-08T00:11:19.255Z,412
2023-02-08T00:12:19.494Z,411
2023-02-08T00:13:18.636Z,411
2023-02-08T00:14:19.450Z,414
2023-02-08T00:15:19.662Z,418
2023-02-08T00:18:19.092Z,412
2023-02-08T00:19:19.047Z,415
2023-02-08T00:20:18.969Z,429
2023-02-08T00:21:18.552Z,425
2023-02-08T00:23:19.066Z,424
2023-02-08T00:25:18.874Z,426
2023-02-08T00:26:18.894Z,432
2023-02-08T00:27:18.604Z,427
2023-02-08T00:28:19.177Z,427
2023-02-08T00:30:19.253Z,412
2023-02-08T00:31:19.073Z,419
2023-02-08T00:33:19.325Z,423
2023-02-08T00:34:19.142Z,417
2023-02-08T00:35:19.390Z,425
2023-02-08T00:37:18.665Z,423
2023-02-08T00:39:19.720Z,425
2023-02-08T00:40:19.541Z,429
2023-02-08T00:41:19.014Z,424
2023-02-08T00:42:18.674Z,424
2023-02-08T00:44:19.108Z,431
2023-02-08T00:45:19.018Z,431
2023-02-08T00:46:19.118Z,433
2023-02-08T00:48:19.563Z,432
2023-02-08T00:49:18.513Z,419
2023-02-08T00:50:19.047Z,428
2023-02-08T00:51:18.891Z,420
2023-02-08T00:52:19.168Z,429
2023-02-08T00:53:19.182Z,425
2023-02-08T00:54:18.667Z,428
2023-02-08T00:55:19.730Z,425
2023-02-08T00:57:19.689Z,428
2023-02-08T00:58:18.830Z,429
2023-02-08T01:00:19.999Z,421
2023-02-08T01:01:21.702Z,419
2023-02-08T01:02:18.592Z,419
2023-02-08T01:03:19.047Z,426
2023-02-08T01:04:18.465Z,429
2023-02-08T01:05:18.806Z,435
2023-02-08T01:06:19.248Z,439
2023-02-08T01:07:18.464Z,441
2023-02-08T01:08:19.215Z,423
2023-02-08T01:09:18.759Z,423
2023-02-08T01:10:19.021Z,430
2023-02-08T01:11:19.444Z,424
2023-02-08T01:13:19.083Z,430
2023-02-08T01:14:18.821Z,425
2023-02-08T01:16:18.990Z,423
2023-02-08T01:17:19.361Z,433
2023-02-08T01:18:19.624Z,437
2023-02-08T01:20:20.137Z,420
2023-02-08T01:22:19.928Z,436
2023-02-08T01:23:20.115Z,437
2023-02-08T01:24:19.684Z,441
2023-02-08T01:25:19.403Z,439
2023-02-08T01:26:19.497Z,431
2023-02-08T01:27:19.306Z,431
2023-02-08T01:28:19.142Z,437
2023-02-08T01:29:19.927Z,426
2023-02-08T01:30:20.261Z,435
2023-02-08T01:33:19.825Z,433
2023-02-08T01:34:19.619Z,427
2023-02-08T01:36:19.526Z,430
2023-02-08T01:37:19.803Z,431
2023-02-08T01:39:19.207Z,425
2023-02-08T01:40:19.633Z,433
2023-02-08T01:41:19.334Z,435
2023-02-08T01:43:19.288Z,431
2023-02-08T01:45:19.725Z,423
2023-02-08T01:46:19.634Z,428
2023-02-08T01:47:18.808Z,428
2023-02-08T01:48:19.708Z,427
2023-02-08T01:51:18.864Z,434
2023-02-08T01:53:19.330Z,429
2023-02-08T01:54:19.835Z,441
2023-02-08T01:55:19.834Z,443
2023-02-08T01:57:19.098Z,442
2023-02-08T01:59:19.416Z,439
2023-02-08T02:01:19.280Z,442
2023-02-08T02:02:19.545Z,445
2023-02-08T02:03:18.795Z,444
2023-02-08T02:04:18.670Z,449
2023-02-08T02:05:19.028Z,439
2023-02-08T02:07:18.343Z,434
2023-02-08T02:09:19.353Z,442
2023-02-08T02:10:19.415Z,443
2023-02-08T02:11:18.704Z,443
2023-02-08T02:12:18.913Z,439
2023-02-08T02:13:18.822Z,434
2023-02-08T02:16:18.496Z,448
2023-02-08T02:18:19.002Z,431
2023-02-08T02:19:18.693Z,442
2023-02-08T02:21:18.918Z,443
2023-02-08T02:23:19.389Z,442
2023-02-08T02:24:18.878Z,442
2023-02-08T02:26:18.902Z,444
2023-02-08T02:27:18.286Z,446
2023-02-08T02:29:18.995Z,447
2023-02-08T02:30:19.401Z,448
2023-02-08T02:31:18.721Z,448
2023-02-08T02:32:19.104Z,450
2023-02-08T02:33:18.898Z,452
2023-02-08T02:34:19.031Z,457
2023-02-08T02:35:18.850Z,454
2023-02-08T02:36:18.560Z,451
2023-02-08T02:37:18.950Z,447
2023-02-08T02:38:19.308Z,451
2023-02-08T02:39:18.978Z,455
2023-02-08T02:40:18.916Z,447
2023-02-08T02:42:18.791Z,444
2023-02-08T02:43:18.437Z,445
2023-02-08T02:45:19.411Z,446
2023-02-08T02:46:19.256Z,442
2023-02-08T02:48:18.979Z,439
2023-02-08T02:49:18.990Z,443
2023-02-08T02:51:19.625Z,435
2023-02-08T02:52:19.191Z,435
2023-02-08T02:54:19.256Z,447
2023-02-08T02:56:18.830Z,446
2023-02-08T02:58:19.007Z,441
2023-02-08T03:00:19.749Z,440
2023-02-08T03:01:19.057Z,440
2023-02-08T03:02:19.294Z,438
2023-02-08T03:03:19.151Z,443
2023-02-08T03:05:19.326Z,452
2023-02-08T03:07:19.333Z,443
2023-02-08T03:09:19.984Z,454
2023-02-08T03:10:20.634Z,455
2023-02-08T03:13:19.242Z,456
2023-02-08T03:15:19.437Z,451
2023-02-08T03:16:19.451Z,437
2023-02-08T03:19:19.231Z,439
2023-02-08T03:21:19.720Z,441
2023-02-08T03:22:19.714Z,442
2023-02-08T03:23:19.225Z,439
2023-02-08T03:24:18.889Z,435
2023-02-08T03:26:19.450Z,442
2023-02-08T03:27:19.376Z,447
2023-02-08T03:28:18.376Z,448
2023-02-08T03:29:19.208Z,450
2023-02-08T03:30:19.839Z,433
2023-02-08T03:33:19.436Z,423
2023-02-08T03:34:19.886Z,426
2023-02-08T03:35:20.147Z,438
2023-02-08T03:36:20.114Z,439
2023-02-08T03:38:19.815Z,448
2023-02-08T03:40:19.761Z,433
2023-02-08T03:41:19.895Z,435
2023-02-08T03:42:19.987Z,454
2023-02-08T03:43:19.811Z,445
2023-02-08T03:45:19.847Z,450
2023-02-08T03:46:19.481Z,443
2023-02-08T03:47:19.705Z,441
2023-02-08T03:48:19.668Z,449
2023-02-08T03:50:20.074Z,447
2023-02-08T03:52:20.066Z,433
2023-02-08T03:55:20.250Z,448
2023-02-08T03:56:19.679Z,456
2023-02-08T03:57:19.826Z,449
2023-02-08T03:59:19.761Z,426
2023-02-08T04:00:20.352Z,432
2023-02-08T04:01:19.300Z,435
2023-02-08T04:02:19.195Z,442
2023-02-08T04:03:19.331Z,427
2023-02-08T04:04:19.196Z,430
2023-02-08T04:07:19.444Z,424
2023-02-08T04:08:19.628Z,430
2023-02-08T04:09:19.438Z,439
2023-02-08T04:10:19.976Z,423
2023-02-08T04:11:19.317Z,423
2023-02-08T04:12:19.395Z,431
2023-02-08T04:13:19.404Z,434
2023-02-08T04:18:19.189Z,432
2023-02-08T04:20:19.425Z,430
2023-02-08T04:21:19.326Z,433
2023-02-08T04:22:19.449Z,433
2023-02-08T04:23:19.460Z,440
2023-02-08T04:24:19.414Z,445
2023-02-08T04:26:19.713Z,429
2023-02-08T04:27:19.716Z,429
2023-02-08T04:28:19.664Z,448
2023-02-08T04:31:18.787Z,452
2023-02-08T04:34:19.721Z,442
2023-02-08T04:38:19.355Z,456
2023-02-08T04:41:19.178Z,449
2023-02-08T04:42:19.365Z,448
2023-02-08T04:43:18.772Z,447
2023-02-08T04:44:18.505Z,447
2023-02-08T04:45:19.431Z,456
2023-02-08T04:47:18.244Z,460
2023-02-08T04:48:19.085Z,455
2023-02-08T04:49:18.879Z,449
2023-02-08T04:51:18.644Z,470
2023-02-08T04:53:18.630Z,468
2023-02-08T04:54:18.991Z,471
2023-02-08T04:56:18.874Z,466
2023-02-08T04:58:18.313Z,462
2023-02-08T04:59:18.782Z,474
2023-02-08T05:01:19.754Z,459
2023-02-08T05:02:18.722Z,470
2023-02-08T05:04:19.554Z,465
2023-02-08T05:07:18.363Z,446
2023-02-08T05:09:19.112Z,474
2023-02-08T05:10:19.215Z,475
2023-02-08T05:12:19.544Z,455
2023-02-08T05:13:18.563Z,456
2023-02-08T05:15:19.509Z,459
2023-02-08T05:17:18.641Z,461
2023-02-08T05:18:18.509Z,467
2023-02-08T05:20:18.522Z,453
2023-02-08T05:21:18.657Z,445
2023-02-08T05:24:18.869Z,457
2023-02-08T05:26:18.513Z,451
2023-02-08T05:28:19.111Z,453
2023-02-08T05:30:19.693Z,432
2023-02-08T05:31:18.491Z,432
2023-02-08T05:32:19.441Z,436
2023-02-08T05:33:19.170Z,444
2023-02-08T05:34:18.924Z,451
2023-02-08T05:36:19.199Z,444
2023-02-08T05:37:18.973Z,450
2023-02-08T05:39:18.702Z,452
2023-02-08T05:40:18.554Z,456
2023-02-08T05:44:19.111Z,457
2023-02-08T05:45:19.335Z,445
2023-02-08T05:46:19.474Z,447
2023-02-08T05:47:18.633Z,447
2023-02-08T05:48:19.082Z,450
2023-02-08T05:49:18.955Z,447
2023-02-08T05:50:19.120Z,442
2023-02-08T05:51:19.223Z,428
2023-02-08T05:52:19.275Z,429
2023-02-08T05:53:18.980Z,430
2023-02-08T05:54:19.210Z,438
2023-02-08T05:56:19.642Z,434
2023-02-08T05:58:18.948Z,456
2023-02-08T05:59:19.347Z,447
2023-02-08T06:00:20.378Z,455
2023-02-08T06:02:19.225Z,477
2023-02-08T06:03:19.000Z,481
2023-02-08T06:04:19.062Z,467
2023-02-08T06:05:19.422Z,480
2023-02-08T06:07:19.577Z,479
2023-02-08T06:09:19.189Z,481
2023-02-08T06:10:18.930Z,478
2023-02-08T06:11:19.537Z,472
2023-02-08T06:12:19.522Z,473
2023-02-08T06:14:18.622Z,469
2023-02-08T06:15:19.633Z,474
2023-02-08T06:16:20.046Z,469
2023-02-08T06:17:19.007Z,466
2023-02-08T06:18:19.185Z,463
2023-02-08T06:19:18.831Z,469
2023-02-08T06:20:19.146Z,473
2023-02-08T06:22:18.712Z,474
2023-02-08T06:23:19.030Z,471
2023-02-08T06:25:19.233Z,469
2023-02-08T06:26:19.805Z,468
2023-02-08T06:27:19.241Z,474
2023-02-08T06:28:19.431Z,486
2023-02-08T06:29:18.399Z,486
2023-02-08T06:31:19.732Z,486
2023-02-08T06:32:18.901Z,481
2023-02-08T06:33:19.040Z,475
2023-02-08T06:34:18.923Z,477
2023-02-08T06:36:18.409Z,484
2023-02-08T06:37:19.237Z,483
2023-02-08T06:39:19.084Z,481
2023-02-08T06:40:19.515Z,486
2023-02-08T06:41:18.552Z,486
2023-02-08T06:42:19.249Z,490
2023-02-08T06:44:19.566Z,479
2023-02-08T06:45:19.265Z,478
2023-02-08T06:46:19.702Z,477
2023-02-08T06:47:18.918Z,472
2023-02-08T06:49:19.161Z,468
2023-02-08T06:50:19.807Z,482
2023-02-08T06:51:18.825Z,475
2023-02-08T06:52:23.338Z,471
2023-02-08T06:54:19.862Z,482
2023-02-08T06:55:19.734Z,474
2023-02-08T06:56:19.414Z,466
2023-02-08T06:57:19.447Z,462
2023-02-08T06:58:19.272Z,470
2023-02-08T07:00:20.892Z,456
2023-02-08T07:01:19.381Z,461
2023-02-08T07:02:19.807Z,462
2023-02-08T07:03:18.891Z,463
2023-02-08T07:05:20.123Z,452
2023-02-08T07:06:19.712Z,453
2023-02-08T07:07:19.074Z,465
2023-02-08T07:08:19.536Z,460
2023-02-08T07:09:19.009Z,456
2023-02-08T07:13:18.887Z,462
2023-02-08T07:15:19.163Z,478
2023-02-08T07:16:19.243Z,475
2023-02-08T07:18:19.185Z,462
2023-02-08T07:19:19.397Z,464
2023-02-08T07:20:18.974Z,470
2023-02-08T07:21:19.657Z,474
2023-02-08T07:22:18.621Z,481
2023-02-08T07:23:18.803Z,498
2023-02-08T07:25:19.425Z,501
2023-02-08T07:26:19.611Z,487
2023-02-08T07:27:19.170Z,487
2023-02-08T07:28:19.715Z,495
2023-02-08T07:29:19.086Z,504
2023-02-08T07:30:19.853Z,509
2023-02-08T07:31:19.100Z,497
2023-02-08T07:34:19.313Z,507
2023-02-08T07:36:19.422Z,503
2023-02-08T07:37:19.128Z,499
2023-02-08T07:39:19.317Z,490
2023-02-08T07:40:19.877Z,498
2023-02-08T07:41:18.981Z,498
2023-02-08T07:42:19.122Z,482
2023-02-08T07:43:19.818Z,474
2023-02-08T07:44:20.198Z,471
2023-02-08T07:45:19.454Z,464
2023-02-08T07:48:20.912Z,452
2023-02-08T07:50:20.647Z,468
2023-02-08T07:52:19.925Z,458
2023-02-08T07:53:19.814Z,450
2023-02-08T07:55:19.805Z,450
2023-02-08T07:56:19.581Z,452
2023-02-08T07:57:19.099Z,445
2023-02-08T07:58:19.346Z,447
2023-02-08T07:59:19.584Z,446
2023-02-08T08:00:27.825Z,447
2023-02-08T08:01:22.654Z,448
2023-02-08T08:03:19.168Z,451
2023-02-08T08:04:19.585Z,448
2023-02-08T08:05:19.738Z,439
2023-02-08T08:06:33.413Z,433
2023-02-08T08:07:19.484Z,450
2023-02-08T08:08:19.093Z,450
2023-02-08T08:09:19.547Z,424
2023-02-08T08:11:19.203Z,425
2023-02-08T08:12:19.951Z,418
2023-02-08T08:14:19.463Z,435
2023-02-08T08:15:19.895Z,441
2023-02-08T08:16:33.009Z,434
2023-02-08T08:17:19.396Z,432
2023-02-08T08:20:19.809Z,424
2023-02-08T08:22:19.336Z,424
2023-02-08T08:23:19.683Z,429
2023-02-08T08:25:19.196Z,443
2023-02-08T08:26:19.295Z,439
2023-02-08T08:27:19.443Z,435
2023-02-08T08:28:19.926Z,436
2023-02-08T08:29:19.192Z,428
2023-02-08T08:30:19.892Z,430
2023-02-08T08:32:19.560Z,437
2023-02-08T08:34:41.040Z,438
2023-02-08T08:35:19.352Z,440
2023-02-08T08:37:19.535Z,433
2023-02-08T08:39:19.618Z,423
2023-02-08T08:40:20.985Z,433
2023-02-08T08:41:20.656Z,439
2023-02-08T08:42:19.770Z,442
2023-02-08T08:43:20.948Z,434
2023-02-08T08:45:20.727Z,441
2023-02-08T08:47:20.954Z,435
2023-02-08T08:49:19.764Z,430
2023-02-08T08:50:20.945Z,426
2023-02-08T08:51:20.247Z,423
2023-02-08T08:52:20.590Z,425
2023-02-08T08:54:20.224Z,434
2023-02-08T08:55:20.416Z,431
2023-02-08T08:56:20.480Z,427
2023-02-08T08:57:20.769Z,418
2023-02-08T08:58:20.385Z,421
2023-02-08T08:59:20.384Z,426
2023-02-08T09:00:21.751Z,434
2023-02-08T09:01:20.513Z,432
2023-02-08T09:02:20.447Z,435
2023-02-08T09:03:20.471Z,437
2023-02-08T09:04:20.800Z,428
2023-02-08T09:05:20.321Z,435
2023-02-08T09:06:20.782Z,439
2023-02-08T09:08:20.757Z,431
2023-02-08T09:09:20.521Z,423
2023-02-08T09:10:20.106Z,422
2023-02-08T09:11:20.305Z,428
2023-02-08T09:13:19.900Z,430
2023-02-08T09:15:20.135Z,451
2023-02-08T09:16:20.541Z,447
2023-02-08T09:17:20.597Z,438
2023-02-08T09:18:20.540Z,437
2023-02-08T09:20:19.417Z,417
2023-02-08T09:22:19.273Z,423
2023-02-08T09:23:19.813Z,420
2023-02-08T09:24:19.961Z,423
2023-02-08T09:25:20.003Z,417
2023-02-08T09:26:19.807Z,426
2023-02-08T09:27:20.081Z,423
2023-02-08T09:28:19.753Z,422
2023-02-08T09:29:19.501Z,426
2023-02-08T09:30:20.078Z,431
2023-02-08T09:31:19.720Z,424
2023-02-08T09:32:19.501Z,420
2023-02-08T09:33:19.574Z,422
2023-02-08T09:34:19.461Z,416
2023-02-08T09:36:19.172Z,408
2023-02-08T09:38:19.733Z,395
2023-02-08T09:39:19.715Z,399
2023-02-08T09:40:20.144Z,407
2023-02-08T09:42:21.098Z,408
2023-02-08T09:43:20.706Z,414
2023-02-08T09:44:20.968Z,415
2023-02-08T09:45:21.479Z,404
2023-02-08T09:46:21.168Z,403
2023-02-08T09:47:20.795Z,409
2023-02-08T09:48:20.814Z,413
2023-02-08T09:49:20.993Z,410
2023-02-08T09:50:20.987Z,404
2023-02-08T09:51:21.284Z,396
2023-02-08T09:52:20.439Z,404
2023-02-08T09:53:21.020Z,407
2023-02-08T09:55:21.102Z,411
2023-02-08T09:56:20.865Z,412
2023-02-08T09:57:21.108Z,403
2023-02-08T09:58:21.737Z,402
2023-02-08T09:59:20.905Z,395
2023-02-08T10:00:21.886Z,393
2023-02-08T10:01:20.942Z,398
2023-02-08T10:02:21.215Z,406
2023-02-08T10:03:21.076Z,401
2023-02-08T10:04:20.889Z,398
2023-02-08T10:05:22.268Z,389
2023-02-08T10:06:21.352Z,388
2023-02-08T10:07:21.223Z,384
2023-02-08T10:08:22.908Z,391
2023-02-08T10:10:20.942Z,384
2023-02-08T10:11:20.522Z,390
2023-02-08T10:12:19.789Z,394
2023-02-08T10:13:21.464Z,395
2023-02-08T10:14:19.800Z,400
2023-02-08T10:16:19.990Z,384
2023-02-08T10:18:20.035Z,378
2023-02-08T10:19:20.309Z,390
2023-02-08T10:20:20.534Z,394
2023-02-08T10:22:20.217Z,399
2023-02-08T10:23:27.358Z,406
2023-02-08T10:24:19.552Z,407
2023-02-08T10:25:19.859Z,400
2023-02-08T10:27:20.806Z,404
2023-02-08T10:28:20.316Z,397
2023-02-08T10:30:20.544Z,391
2023-02-08T10:31:20.700Z,392
2023-02-08T10:32:20.562Z,393
2023-02-08T10:33:34.071Z,390
2023-02-08T10:34:20.456Z,387
2023-02-08T10:35:34.446Z,388
2023-02-08T10:36:19.969Z,393
2023-02-08T10:38:19.680Z,387
2023-02-08T10:40:19.993Z,383
2023-02-08T10:41:19.371Z,387
2023-02-08T10:42:19.619Z,392
2023-02-08T10:43:19.330Z,388
2023-02-08T10:44:18.951Z,388
2023-02-08T10:45:24.722Z,393
2023-02-08T10:46:19.479Z,389
2023-02-08T10:48:19.508Z,393
2023-02-08T10:50:19.907Z,386
2023-02-08T10:52:19.573Z,390
2023-02-08T10:53:19.390Z,393
2023-02-08T10:56:19.916Z,381
2023-02-08T10:57:19.624Z,385
2023-02-08T10:59:18.156Z,379
2023-02-08T11:00:20.981Z,380
2023-02-08T11:01:19.617Z,386
2023-02-08T11:02:19.937Z,387
2023-02-08T11:03:19.813Z,378
2023-02-08T11:05:19.748Z,379
2023-02-08T11:06:20.181Z,378
2023-02-08T11:07:19.811Z,386
2023-02-08T11:08:20.217Z,381
2023-02-08T11:09:19.937Z,384
2023-02-08T11:10:19.806Z,388
2023-02-08T11:11:20.460Z,392
2023-02-08T11:12:19.942Z,385
2023-02-08T11:13:19.489Z,372
2023-02-08T11:14:20.205Z,376
2023-02-08T11:16:19.902Z,380
2023-02-08T11:17:19.763Z,375
2023-02-08T11:18:20.133Z,373
2023-02-08T11:20:20.319Z,377
2023-02-08T11:21:19.783Z,378
2023-02-08T11:22:20.292Z,375
2023-02-08T11:23:19.933Z,372
2023-02-08T11:25:19.888Z,381
2023-02-08T11:26:20.136Z,387
2023-02-08T11:28:19.534Z,390
2023-02-08T11:29:19.776Z,388
2023-02-08T11:30:19.805Z,385
2023-02-08T11:31:19.673Z,390
2023-02-08T11:33:19.520Z,381
2023-02-08T11:35:20.522Z,380
2023-02-08T11:36:20.394Z,370
2023-02-08T11:37:20.087Z,372
2023-02-08T11:38:19.639Z,375
2023-02-08T11:39:19.955Z,380
2023-02-08T11:41:19.962Z,382
2023-02-08T11:42:19.851Z,387
2023-02-08T11:43:19.629Z,380
2023-02-08T11:44:20.173Z,363
2023-02-08T11:45:19.788Z,382
2023-02-08T11:46:19.816Z,382
2023-02-08T11:47:21.600Z,374
2023-02-08T11:49:20.455Z,371
2023-02-08T11:50:21.408Z,375
2023-02-08T11:51:20.496Z,378
2023-02-08T11:54:20.304Z,374
2023-02-08T11:55:21.002Z,387
2023-02-08T11:56:20.111Z,379
2023-02-08T11:58:19.910Z,374
2023-02-08T12:00:21.179Z,378
2023-02-08T12:02:20.545Z,383
2023-02-08T12:03:20.300Z,376
2023-02-08T12:05:20.158Z,379
2023-02-08T12:06:19.566Z,381
2023-02-08T12:07:20.040Z,373
2023-02-08T12:08:19.857Z,365
2023-02-08T12:09:20.421Z,366
2023-02-08T12:10:20.338Z,367
2023-02-08T12:11:20.453Z,372
2023-02-08T12:13:20.104Z,382
2023-02-08T12:14:19.436Z,379
2023-02-08T12:15:19.619Z,380
2023-02-08T12:16:19.707Z,373
2023-02-08T12:17:19.933Z,369
2023-02-08T12:18:19.524Z,369
2023-02-08T12:19:19.792Z,364
2023-02-08T12:20:19.619Z,363
2023-02-08T12:21:20.290Z,361
2023-02-08T12:22:19.932Z,366
2023-02-08T12:23:19.639Z,374
2023-02-08T12:24:19.731Z,377
2023-02-08T12:26:20.187Z,390
2023-02-08T12:27:20.034Z,384
2023-02-08T12:28:19.828Z,383
2023-02-08T12:30:20.210Z,381
2023-02-08T12:31:19.488Z,381
2023-02-08T12:33:19.845Z,377
2023-02-08T12:35:29.527Z,374
2023-02-08T12:36:20.116Z,366
2023-02-08T12:37:20.239Z,373
2023-02-08T12:39:21.893Z,374
2023-02-08T12:40:20.243Z,376
2023-02-08T12:41:19.818Z,380
2023-02-08T12:42:19.915Z,386
2023-02-08T12:43:20.289Z,375
2023-02-08T12:46:19.948Z,368
2023-02-08T12:47:20.061Z,377
2023-02-08T12:48:20.078Z,370
2023-02-08T12:50:20.478Z,364
2023-02-08T12:51:18.862Z,369
2023-02-08T12:52:20.044Z,377
2023-02-08T12:53:19.533Z,382
2023-02-08T12:54:20.479Z,374
2023-02-08T12:55:20.354Z,363
2023-02-08T12:56:20.161Z,362
2023-02-08T12:57:19.476Z,362
2023-02-08T12:58:20.004Z,372
2023-02-08T12:59:19.773Z,377
2023-02-08T13:00:20.424Z,381
2023-02-08T13:02:19.714Z,375
2023-02-08T13:03:19.628Z,370
2023-02-08T13:04:19.427Z,361
2023-02-08T13:06:19.526Z,375
2023-02-08T13:07:19.739Z,370
2023-02-08T13:09:19.931Z,373
2023-02-08T13:10:19.825Z,370
2023-02-08T13:11:20.433Z,370
2023-02-08T13:12:20.149Z,366
2023-02-08T13:14:19.932Z,363
2023-02-08T13:15:30.050Z,370
2023-02-08T13:16:19.869Z,371
2023-02-08T13:18:19.820Z,373
2023-02-08T13:20:20.310Z,372
2023-02-08T13:22:20.671Z,378
2023-02-08T13:23:20.566Z,375
2023-02-08T13:24:20.725Z,380
2023-02-08T13:25:20.981Z,378
2023-02-08T13:28:21.326Z,385
2023-02-08T13:29:20.250Z,373
2023-02-08T13:30:20.364Z,363
2023-02-08T13:31:20.296Z,364
2023-02-08T13:32:19.880Z,362
2023-02-08T13:33:20.140Z,374
2023-02-08T13:34:19.537Z,376
2023-02-08T13:36:20.419Z,390
2023-02-08T13:37:25.110Z,381
2023-02-08T13:38:20.055Z,378
2023-02-08T13:40:20.326Z,378
2023-02-08T13:42:19.893Z,369
2023-02-08T13:43:34.091Z,376
2023-02-08T13:44:19.786Z,370
2023-02-08T13:45:20.431Z,368
2023-02-08T13:46:19.964Z,371
2023-02-08T13:47:19.166Z,374
2023-02-08T13:48:19.486Z,376
2023-02-08T13:49:19.566Z,373
2023-02-08T13:50:19.907Z,369
2023-02-08T13:51:20.285Z,366
2023-02-08T13:52:20.205Z,367
2023-02-08T13:53:20.180Z,364
2023-02-08T13:55:19.865Z,368
2023-02-08T13:57:20.284Z,376
2023-02-08T13:58:19.801Z,374
2023-02-08T13:59:19.732Z,369
2023-02-08T14:00:21.725Z,375
2023-02-08T14:01:20.328Z,374
2023-02-08T14:04:19.599Z,381
2023-02-08T14:05:19.600Z,371
2023-02-08T14:06:19.560Z,377
2023-02-08T14:07:19.418Z,375
2023-02-08T14:08:19.544Z,369
2023-02-08T14:09:19.935Z,360
2023-02-08T14:11:19.962Z,363
2023-02-08T14:12:20.247Z,369
2023-02-08T14:14:20.008Z,372
2023-02-08T14:15:19.824Z,371
2023-02-08T14:17:19.266Z,370
2023-02-08T14:20:19.694Z,372
2023-02-08T14:21:19.326Z,370
2023-02-08T14:23:19.281Z,384
2023-02-08T14:24:19.491Z,376
2023-02-08T14:25:19.796Z,369
2023-02-08T14:26:19.975Z,370
2023-02-08T14:27:19.860Z,378
2023-02-08T14:28:20.277Z,369
2023-02-08T14:29:21.598Z,377
2023-02-08T14:30:20.055Z,369
2023-02-08T14:31:19.866Z,381
2023-02-08T14:32:19.787Z,377
2023-02-08T14:34:19.955Z,378
2023-02-08T14:36:20.726Z,374
2023-02-08T14:37:20.823Z,379
2023-02-08T14:38:20.621Z,373
2023-02-08T14:40:22.936Z,372
2023-02-08T14:41:19.799Z,377
2023-02-08T14:43:20.007Z,364
2023-02-08T14:44:20.111Z,366
2023-02-08T14:45:20.578Z,390
2023-02-08T14:46:20.352Z,384
2023-02-08T14:47:20.242Z,372
2023-02-08T14:48:19.937Z,381
2023-02-08T14:49:19.609Z,377
2023-02-08T14:51:19.846Z,375
2023-02-08T14:52:20.820Z,379
2023-02-08T14:53:19.948Z,369
2023-02-08T14:54:19.814Z,375
2023-02-08T14:55:20.194Z,374
2023-02-08T14:56:19.913Z,388
2023-02-08T14:57:20.246Z,385
2023-02-08T14:58:19.701Z,379
2023-02-08T14:59:20.359Z,377
2023-02-08T15:01:20.075Z,376
2023-02-08T15:02:20.298Z,374
2023-02-08T15:03:19.554Z,368
2023-02-08T15:06:19.912Z,372
2023-02-08T15:07:20.037Z,374
2023-02-08T15:08:20.081Z,373
2023-02-08T15:10:20.690Z,386
2023-02-08T15:11:24.861Z,389
2023-02-08T15:12:19.635Z,394
2023-02-08T15:13:20.147Z,385
2023-02-08T15:14:19.732Z,394
2023-02-08T15:15:25.411Z,396
2023-02-08T15:16:20.116Z,387
2023-02-08T15:17:19.642Z,383
2023-02-08T15:18:19.948Z,378
2023-02-08T15:19:27.763Z,381
2023-02-08T15:20:20.380Z,373
2023-02-08T15:21:20.040Z,375
2023-02-08T15:22:19.509Z,386
2023-02-08T15:24:20.352Z,387
2023-02-08T15:25:20.145Z,388
2023-02-08T15:26:20.027Z,382
2023-02-08T15:27:34.202Z,376
2023-02-08T15:28:19.756Z,379
2023-02-08T15:29:20.858Z,370
2023-02-08T15:30:20.346Z,371
2023-02-08T15:32:20.434Z,381
2023-02-08T15:33:19.632Z,383
2023-02-08T15:34:19.877Z,384
2023-02-08T15:35:22.552Z,376
2023-02-08T15:36:20.216Z,377
2023-02-08T15:38:19.569Z,382
2023-02-08T15:39:19.382Z,385
2023-02-08T15:40:20.140Z,378
2023-02-08T15:42:19.432Z,384
2023-02-08T15:43:38.728Z,377
2023-02-08T15:45:20.621Z,376
2023-02-08T15:46:18.976Z,370
2023-02-08T15:47:19.415Z,374
2023-02-08T15:49:19.814Z,375
2023-02-08T15:50:20.002Z,368
2023-02-08T15:51:19.944Z,366
2023-02-08T15:52:19.927Z,368
2023-02-08T15:53:19.495Z,381
2023-02-08T15:54:19.125Z,386
2023-02-08T15:56:35.401Z,389
2023-02-08T15:58:20.500Z,367
2023-02-08T15:59:19.695Z,371
2023-02-08T16:00:20.687Z,368
2023-02-08T16:02:19.836Z,368
2023-02-08T16:03:20.597Z,366
2023-02-08T16:04:21.054Z,365
2023-02-08T16:05:21.169Z,377
2023-02-08T16:06:20.506Z,378
2023-02-08T16:07:20.772Z,386
2023-02-08T16:08:20.787Z,378
2023-02-08T16:10:20.309Z,358
2023-02-08T16:12:20.350Z,380
2023-02-08T16:13:19.594Z,382
2023-02-08T16:14:24.225Z,381
2023-02-08T16:15:20.280Z,377
2023-02-08T16:16:20.193Z,378
2023-02-08T16:17:19.632Z,377
2023-02-08T16:18:19.882Z,382
2023-02-08T16:19:19.984Z,371
2023-02-08T16:20:20.053Z,385
2023-02-08T16:21:20.019Z,389
2023-02-08T16:22:19.917Z,392
2023-02-08T16:23:19.677Z,393
2023-02-08T16:24:20.002Z,395
2023-02-08T16:25:20.049Z,387
2023-02-08T16:27:20.137Z,380
2023-02-08T16:29:20.293Z,388
2023-02-08T16:33:19.863Z,392
2023-02-08T16:34:19.902Z,396
2023-02-08T16:35:20.248Z,394
2023-02-08T16:37:19.644Z,389
2023-02-08T16:38:19.591Z,397
2023-02-08T16:39:19.739Z,393
2023-02-08T16:40:19.545Z,392
2023-02-08T16:41:19.166Z,393
2023-02-08T16:42:20.073Z,397
2023-02-08T16:43:19.539Z,401
2023-02-08T16:44:19.924Z,391
2023-02-08T16:45:20.660Z,389
2023-02-08T16:47:20.246Z,399
2023-02-08T16:48:19.561Z,396
2023-02-08T16:49:19.974Z,399
2023-02-08T16:50:19.846Z,399
2023-02-08T16:52:20.693Z,391
2023-02-08T16:53:19.926Z,388
2023-02-08T16:54:20.337Z,384
2023-02-08T16:55:20.344Z,392
2023-02-08T16:56:20.462Z,397
2023-02-08T16:57:20.313Z,395
2023-02-08T16:58:20.122Z,392
2023-02-08T16:59:19.758Z,394
2023-02-08T17:00:20.993Z,400
2023-02-08T17:01:20.175Z,403
2023-02-08T17:02:20.283Z,392
2023-02-08T17:03:20.133Z,382
2023-02-08T17:04:19.681Z,391
2023-02-08T17:05:20.515Z,385
2023-02-08T17:06:20.213Z,387
2023-02-08T17:07:20.135Z,393
2023-02-08T17:08:20.423Z,389
2023-02-08T17:09:20.282Z,393
2023-02-08T17:11:19.816Z,402
2023-02-08T17:12:22.736Z,396
2023-02-08T17:15:20.157Z,391
2023-02-08T17:16:19.990Z,395
2023-02-08T17:17:20.168Z,398
2023-02-08T17:18:19.847Z,396
2023-02-08T17:19:20.599Z,402
2023-02-08T17:20:20.533Z,395
2023-02-08T17:21:19.762Z,398
2023-02-08T17:22:20.537Z,394
2023-02-08T17:23:20.150Z,392
2023-02-08T17:24:20.089Z,390
2023-02-08T17:26:20.066Z,383
2023-02-08T17:27:19.412Z,381
2023-02-08T17:28:19.705Z,388
2023-02-08T17:29:20.220Z,392
2023-02-08T17:30:19.922Z,389
2023-02-08T17:32:20.044Z,394
2023-02-08T17:33:20.527Z,401
2023-02-08T17:34:25.239Z,400
2023-02-08T17:35:20.180Z,397
2023-02-08T17:36:19.692Z,391
2023-02-08T17:37:19.420Z,399
2023-02-08T17:38:19.392Z,398
2023-02-08T17:40:19.911Z,396
2023-02-08T17:42:19.412Z,394
2023-02-08T17:43:19.962Z,402
2023-02-08T17:44:19.933Z,409
2023-02-08T17:45:20.387Z,399
2023-02-08T17:46:19.884Z,405
2023-02-08T17:48:19.496Z,402
2023-02-08T17:49:19.332Z,395
2023-02-08T17:50:34.532Z,401
2023-02-08T17:51:19.691Z,403
2023-02-08T17:52:19.994Z,399
2023-02-08T17:53:19.934Z,402
2023-02-08T17:54:36.749Z,398
2023-02-08T17:55:19.829Z,405
2023-02-08T17:56:20.087Z,402
2023-02-08T17:57:20.281Z,398
2023-02-08T17:58:19.404Z,405
2023-02-08T17:59:19.418Z,410
2023-02-08T18:00:21.227Z,418
2023-02-08T18:01:20.347Z,405
2023-02-08T18:02:20.146Z,407
2023-02-08T18:04:19.767Z,401
2023-02-08T18:05:20.607Z,409
2023-02-08T18:06:20.306Z,416
2023-02-08T18:07:20.111Z,413
2023-02-08T18:08:19.562Z,407